sensor_id;sensor_type;location;lat;lon;timestamp;P1;durP1;ratioP1;P2;durP2;ratioP2
64903;SDS011;51401;48.882;12.598;2022-11-24T00:01:25;25.80;;;11.70;;
64903;SDS011;51401;48.882;12.598;2022-11-24T00:03:57;20.27;;;11.50;;
64903;SDS011;51401;48.882;12.598;2022-11-24T00:06:24;27.20;;;12.90;;
64903;SDS011;51401;48.882;12.598;2022-11-24T00:08:50;21.80;;;11.90;;
64903;SDS011;51401;48.882;12.598;2022-11-24T00:11:17;23.38;;;11.48;;
64903;SDS011;51401;48.882;12.598;2022-11-24T00:13:44;21.40;;;11.85;;
64903;SDS011;51401;48.882;12.598;2022-11-24T00:18:38;18.92;;;11.63;;
64903;SDS011;51401;48.882;12.598;2022-11-24T00:21:05;20.30;;;11.60;;
64903;SDS011;51401;48.882;12.598;2022-11-24T00:23:31;20.98;;;11.00;;
64903;SDS011;51401;48.882;12.598;2022-11-24T00:26:12;20.63;;;11.18;;
64903;SDS011;51401;48.882;12.598;2022-11-24T00:28:39;19.27;;;11.48;;
64903;SDS011;51401;48.882;12.598;2022-11-24T00:31:16;22.63;;;11.90;;
64903;SDS011;51401;48.882;12.598;2022-11-24T00:33:50;17.52;;;10.98;;
64903;SDS011;51401;48.882;12.598;2022-11-24T00:36:17;21.13;;;11.38;;
64903;SDS011;51401;48.882;12.598;2022-11-24T00:38:43;18.45;;;10.07;;
64903;SDS011;51401;48.882;12.598;2022-11-24T00:41:09;19.98;;;11.50;;
64903;SDS011;51401;48.882;12.598;2022-11-24T00:43:34;19.55;;;11.35;;
64903;SDS011;51401;48.882;12.598;2022-11-24T00:45:59;22.52;;;12.32;;
64903;SDS011;51401;48.882;12.598;2022-11-24T00:48:25;20.55;;;12.10;;
64903;SDS011;51401;48.882;12.598;2022-11-24T00:50:54;20.73;;;11.15;;
64903;SDS011;51401;48.882;12.598;2022-11-24T00:53:24;22.45;;;11.50;;
64903;SDS011;51401;48.882;12.598;2022-11-24T00:55:50;20.63;;;11.57;;
64903;SDS011;51401;48.882;12.598;2022-11-24T00:58:16;18.00;;;10.98;;
64903;SDS011;51401;48.882;12.598;2022-11-24T01:00:42;18.85;;;10.50;;
64903;SDS011;51401;48.882;12.598;2022-11-24T01:03:07;17.10;;;10.55;;
64903;SDS011;51401;48.882;12.598;2022-11-24T01:05:35;18.25;;;9.85;;
64903;SDS011;51401;48.882;12.598;2022-11-24T01:08:01;17.48;;;10.15;;
64903;SDS011;51401;48.882;12.598;2022-11-24T01:10:26;18.27;;;10.23;;
64903;SDS011;51401;48.882;12.598;2022-11-24T01:12:52;19.23;;;10.00;;
64903;SDS011;51401;48.882;12.598;2022-11-24T01:15:17;18.90;;;10.98;;
64903;SDS011;51401;48.882;12.598;2022-11-24T01:17:43;17.75;;;9.90;;
64903;SDS011;51401;48.882;12.598;2022-11-24T01:20:08;16.75;;;10.70;;
64903;SDS011;51401;48.882;12.598;2022-11-24T01:22:34;19.00;;;11.25;;
64903;SDS011;51401;48.882;12.598;2022-11-24T01:24:59;16.95;;;10.27;;
64903;SDS011;51401;48.882;12.598;2022-11-24T01:27:24;16.02;;;10.00;;
64903;SDS011;51401;48.882;12.598;2022-11-24T01:29:50;18.65;;;9.73;;
64903;SDS011;51401;48.882;12.598;2022-11-24T01:32:15;17.20;;;9.93;;
64903;SDS011;51401;48.882;12.598;2022-11-24T01:34:40;16.20;;;9.70;;
64903;SDS011;51401;48.882;12.598;2022-11-24T01:37:06;21.30;;;11.88;;
64903;SDS011;51401;48.882;12.598;2022-11-24T01:39:31;16.45;;;9.75;;
64903;SDS011;51401;48.882;12.598;2022-11-24T01:41:59;16.73;;;10.23;;
64903;SDS011;51401;48.882;12.598;2022-11-24T01:44:26;17.30;;;9.10;;
64903;SDS011;51401;48.882;12.598;2022-11-24T01:46:56;18.52;;;10.27;;
64903;SDS011;51401;48.882;12.598;2022-11-24T01:52:04;16.00;;;10.02;;
64903;SDS011;51401;48.882;12.598;2022-11-24T01:54:35;18.52;;;10.48;;
64903;SDS011;51401;48.882;12.598;2022-11-24T01:57:08;15.65;;;10.30;;
64903;SDS011;51401;48.882;12.598;2022-11-24T01:59:36;13.63;;;8.95;;
64903;SDS011;51401;48.882;12.598;2022-11-24T02:02:02;18.10;;;10.52;;
64903;SDS011;51401;48.882;12.598;2022-11-24T02:04:28;16.33;;;9.85;;
64903;SDS011;51401;48.882;12.598;2022-11-24T02:06:57;15.98;;;9.43;;
64903;SDS011;51401;48.882;12.598;2022-11-24T02:09:30;15.95;;;9.73;;
64903;SDS011;51401;48.882;12.598;2022-11-24T02:11:59;17.95;;;10.70;;
64903;SDS011;51401;48.882;12.598;2022-11-24T02:14:26;14.95;;;9.18;;
64903;SDS011;51401;48.882;12.598;2022-11-24T02:16:52;13.15;;;9.43;;
64903;SDS011;51401;48.882;12.598;2022-11-24T02:19:33;14.43;;;8.75;;
64903;SDS011;51401;48.882;12.598;2022-11-24T02:22:04;16.25;;;9.20;;
64903;SDS011;51401;48.882;12.598;2022-11-24T02:27:11;13.82;;;8.85;;
64903;SDS011;51401;48.882;12.598;2022-11-24T02:29:37;17.73;;;9.02;;
64903;SDS011;51401;48.882;12.598;2022-11-24T02:32:03;13.43;;;8.60;;
64903;SDS011;51401;48.882;12.598;2022-11-24T02:34:31;16.75;;;9.43;;
64903;SDS011;51401;48.882;12.598;2022-11-24T02:36:57;13.95;;;8.63;;
64903;SDS011;51401;48.882;12.598;2022-11-24T02:39:22;15.88;;;9.63;;
64903;SDS011;51401;48.882;12.598;2022-11-24T02:41:51;16.30;;;9.85;;
64903;SDS011;51401;48.882;12.598;2022-11-24T02:44:21;15.50;;;9.43;;
64903;SDS011;51401;48.882;12.598;2022-11-24T02:47:01;15.50;;;9.25;;
64903;SDS011;51401;48.882;12.598;2022-11-24T02:49:31;16.33;;;9.83;;
64903;SDS011;51401;48.882;12.598;2022-11-24T02:51:56;13.35;;;9.25;;
64903;SDS011;51401;48.882;12.598;2022-11-24T02:54:22;16.95;;;9.32;;
64903;SDS011;51401;48.882;12.598;2022-11-24T02:56:47;16.88;;;9.73;;
64903;SDS011;51401;48.882;12.598;2022-11-24T02:59:12;15.23;;;10.10;;
64903;SDS011;51401;48.882;12.598;2022-11-24T03:01:38;14.77;;;8.70;;
64903;SDS011;51401;48.882;12.598;2022-11-24T03:04:03;15.57;;;8.95;;
64903;SDS011;51401;48.882;12.598;2022-11-24T03:06:28;16.75;;;9.88;;
64903;SDS011;51401;48.882;12.598;2022-11-24T03:08:54;14.32;;;8.80;;
64903;SDS011;51401;48.882;12.598;2022-11-24T03:11:19;19.05;;;9.77;;
64903;SDS011;51401;48.882;12.598;2022-11-24T03:13:45;16.40;;;9.65;;
64903;SDS011;51401;48.882;12.598;2022-11-24T03:16:10;17.33;;;10.23;;
64903;SDS011;51401;48.882;12.598;2022-11-24T03:18:35;16.50;;;9.60;;
64903;SDS011;51401;48.882;12.598;2022-11-24T03:21:01;16.75;;;9.00;;
64903;SDS011;51401;48.882;12.598;2022-11-24T03:23:26;15.18;;;9.75;;
64903;SDS011;51401;48.882;12.598;2022-11-24T03:25:51;17.38;;;9.43;;
64903;SDS011;51401;48.882;12.598;2022-11-24T03:28:16;15.43;;;8.85;;
64903;SDS011;51401;48.882;12.598;2022-11-24T03:30:42;14.18;;;9.13;;
64903;SDS011;51401;48.882;12.598;2022-11-24T03:33:07;16.33;;;9.48;;
64903;SDS011;51401;48.882;12.598;2022-11-24T03:35:32;17.85;;;10.43;;
64903;SDS011;51401;48.882;12.598;2022-11-24T03:37:58;15.95;;;9.43;;
64903;SDS011;51401;48.882;12.598;2022-11-24T03:40:23;15.75;;;9.55;;
64903;SDS011;51401;48.882;12.598;2022-11-24T03:42:48;16.85;;;10.00;;
64903;SDS011;51401;48.882;12.598;2022-11-24T03:45:14;15.50;;;9.95;;
64903;SDS011;51401;48.882;12.598;2022-11-24T03:47:39;17.17;;;9.82;;
64903;SDS011;51401;48.882;12.598;2022-11-24T03:50:04;19.15;;;10.63;;
64903;SDS011;51401;48.882;12.598;2022-11-24T03:52:30;15.57;;;10.13;;
64903;SDS011;51401;48.882;12.598;2022-11-24T03:54:55;15.85;;;9.85;;
64903;SDS011;51401;48.882;12.598;2022-11-24T03:57:21;16.17;;;9.48;;
64903;SDS011;51401;48.882;12.598;2022-11-24T03:59:46;15.43;;;9.35;;
64903;SDS011;51401;48.882;12.598;2022-11-24T04:02:11;16.30;;;9.00;;
64903;SDS011;51401;48.882;12.598;2022-11-24T04:04:37;15.88;;;9.63;;
64903;SDS011;51401;48.882;12.598;2022-11-24T04:07:02;14.95;;;8.82;;
64903;SDS011;51401;48.882;12.598;2022-11-24T04:09:27;16.23;;;9.75;;
64903;SDS011;51401;48.882;12.598;2022-11-24T04:11:53;16.52;;;9.93;;
64903;SDS011;51401;48.882;12.598;2022-11-24T04:14:37;12.73;;;8.93;;
64903;SDS011;51401;48.882;12.598;2022-11-24T04:17:02;14.02;;;8.30;;
64903;SDS011;51401;48.882;12.598;2022-11-24T04:19:28;15.23;;;9.73;;
64903;SDS011;51401;48.882;12.598;2022-11-24T04:21:54;16.13;;;9.48;;
64903;SDS011;51401;48.882;12.598;2022-11-24T04:24:19;17.08;;;9.13;;
64903;SDS011;51401;48.882;12.598;2022-11-24T04:26:44;16.63;;;9.85;;
64903;SDS011;51401;48.882;12.598;2022-11-24T04:29:10;13.48;;;8.18;;
64903;SDS011;51401;48.882;12.598;2022-11-24T04:31:35;13.65;;;8.63;;
64903;SDS011;51401;48.882;12.598;2022-11-24T04:34:00;15.10;;;8.68;;
64903;SDS011;51401;48.882;12.598;2022-11-24T04:36:26;15.00;;;9.05;;
64903;SDS011;51401;48.882;12.598;2022-11-24T04:38:51;20.58;;;10.20;;
64903;SDS011;51401;48.882;12.598;2022-11-24T04:41:18;15.93;;;8.95;;
64903;SDS011;51401;48.882;12.598;2022-11-24T04:43:43;17.48;;;10.07;;
64903;SDS011;51401;48.882;12.598;2022-11-24T04:46:09;20.10;;;10.38;;
64903;SDS011;51401;48.882;12.598;2022-11-24T04:48:35;19.80;;;11.85;;
64903;SDS011;51401;48.882;12.598;2022-11-24T04:51:03;15.45;;;10.20;;
64903;SDS011;51401;48.882;12.598;2022-11-24T04:53:29;18.05;;;10.60;;
64903;SDS011;51401;48.882;12.598;2022-11-24T04:55:54;18.45;;;10.45;;
64903;SDS011;51401;48.882;12.598;2022-11-24T04:58:19;18.05;;;10.65;;
64903;SDS011;51401;48.882;12.598;2022-11-24T05:00:45;18.10;;;10.60;;
64903;SDS011;51401;48.882;12.598;2022-11-24T05:03:10;16.67;;;10.00;;
64903;SDS011;51401;48.882;12.598;2022-11-24T05:05:35;18.95;;;10.98;;
64903;SDS011;51401;48.882;12.598;2022-11-24T05:08:01;19.13;;;11.80;;
64903;SDS011;51401;48.882;12.598;2022-11-24T05:10:26;17.25;;;10.93;;
64903;SDS011;51401;48.882;12.598;2022-11-24T05:13:02;17.95;;;10.32;;
64903;SDS011;51401;48.882;12.598;2022-11-24T05:15:29;15.75;;;9.95;;
64903;SDS011;51401;48.882;12.598;2022-11-24T05:17:54;14.60;;;10.00;;
64903;SDS011;51401;48.882;12.598;2022-11-24T05:20:19;18.65;;;10.52;;
64903;SDS011;51401;48.882;12.598;2022-11-24T05:22:45;16.73;;;10.10;;
64903;SDS011;51401;48.882;12.598;2022-11-24T05:25:10;17.00;;;11.05;;
64903;SDS011;51401;48.882;12.598;2022-11-24T05:27:37;18.55;;;10.52;;
64903;SDS011;51401;48.882;12.598;2022-11-24T05:30:03;18.30;;;11.48;;
64903;SDS011;51401;48.882;12.598;2022-11-24T05:32:29;18.50;;;11.50;;
64903;SDS011;51401;48.882;12.598;2022-11-24T05:34:54;29.55;;;17.42;;
64903;SDS011;51401;48.882;12.598;2022-11-24T05:37:20;20.25;;;13.48;;
64903;SDS011;51401;48.882;12.598;2022-11-24T05:39:46;17.88;;;10.80;;
64903;SDS011;51401;48.882;12.598;2022-11-24T05:42:11;18.85;;;12.32;;
64903;SDS011;51401;48.882;12.598;2022-11-24T05:44:55;19.20;;;10.80;;
64903;SDS011;51401;48.882;12.598;2022-11-24T05:47:21;19.80;;;11.13;;
64903;SDS011;51401;48.882;12.598;2022-11-24T05:49:47;20.60;;;11.02;;
64903;SDS011;51401;48.882;12.598;2022-11-24T05:52:12;18.48;;;10.90;;
64903;SDS011;51401;48.882;12.598;2022-11-24T05:54:38;20.00;;;12.02;;
64903;SDS011;51401;48.882;12.598;2022-11-24T05:57:03;19.58;;;11.70;;
64903;SDS011;51401;48.882;12.598;2022-11-24T05:59:29;19.65;;;10.90;;
64903;SDS011;51401;48.882;12.598;2022-11-24T06:01:54;19.30;;;11.35;;
64903;SDS011;51401;48.882;12.598;2022-11-24T06:04:19;17.27;;;10.60;;
64903;SDS011;51401;48.882;12.598;2022-11-24T06:06:45;21.30;;;11.13;;
64903;SDS011;51401;48.882;12.598;2022-11-24T06:09:11;22.05;;;12.20;;
64903;SDS011;51401;48.882;12.598;2022-11-24T06:11:36;16.55;;;10.55;;
64903;SDS011;51401;48.882;12.598;2022-11-24T06:14:01;23.60;;;11.05;;
64903;SDS011;51401;48.882;12.598;2022-11-24T06:16:27;21.50;;;12.05;;
64903;SDS011;51401;48.882;12.598;2022-11-24T06:18:52;19.00;;;11.43;;
64903;SDS011;51401;48.882;12.598;2022-11-24T06:21:17;18.65;;;12.05;;
64903;SDS011;51401;48.882;12.598;2022-11-24T06:23:43;20.65;;;12.70;;
64903;SDS011;51401;48.882;12.598;2022-11-24T06:26:11;20.45;;;11.82;;
64903;SDS011;51401;48.882;12.598;2022-11-24T06:28:36;19.83;;;12.00;;
64903;SDS011;51401;48.882;12.598;2022-11-24T06:31:03;16.85;;;10.55;;
64903;SDS011;51401;48.882;12.598;2022-11-24T06:33:32;21.58;;;12.63;;
64903;SDS011;51401;48.882;12.598;2022-11-24T06:35:59;20.63;;;12.10;;
64903;SDS011;51401;48.882;12.598;2022-11-24T06:41:05;21.92;;;12.63;;
64903;SDS011;51401;48.882;12.598;2022-11-24T06:43:32;20.95;;;12.88;;
64903;SDS011;51401;48.882;12.598;2022-11-24T06:45:59;20.60;;;12.98;;
64903;SDS011;51401;48.882;12.598;2022-11-24T06:48:24;23.58;;;13.40;;
64903;SDS011;51401;48.882;12.598;2022-11-24T06:50:50;19.42;;;11.38;;
64903;SDS011;51401;48.882;12.598;2022-11-24T06:53:16;22.20;;;12.82;;
64903;SDS011;51401;48.882;12.598;2022-11-24T06:55:42;24.17;;;14.27;;
64903;SDS011;51401;48.882;12.598;2022-11-24T06:58:08;21.15;;;12.13;;
64903;SDS011;51401;48.882;12.598;2022-11-24T07:00:33;21.80;;;13.45;;
64903;SDS011;51401;48.882;12.598;2022-11-24T07:02:59;20.08;;;12.82;;
64903;SDS011;51401;48.882;12.598;2022-11-24T07:05:25;23.58;;;13.07;;
64903;SDS011;51401;48.882;12.598;2022-11-24T07:07:50;21.50;;;12.15;;
64903;SDS011;51401;48.882;12.598;2022-11-24T07:10:16;16.98;;;11.98;;
64903;SDS011;51401;48.882;12.598;2022-11-24T07:12:41;21.08;;;12.68;;
64903;SDS011;51401;48.882;12.598;2022-11-24T07:15:07;19.23;;;12.15;;
64903;SDS011;51401;48.882;12.598;2022-11-24T07:17:36;18.83;;;11.65;;
64903;SDS011;51401;48.882;12.598;2022-11-24T07:20:03;22.95;;;13.10;;
64903;SDS011;51401;48.882;12.598;2022-11-24T07:22:32;18.52;;;12.70;;
64903;SDS011;51401;48.882;12.598;2022-11-24T07:24:58;15.98;;;11.02;;
64903;SDS011;51401;48.882;12.598;2022-11-24T07:27:23;20.15;;;12.38;;
64903;SDS011;51401;48.882;12.598;2022-11-24T07:29:50;19.00;;;11.18;;
64903;SDS011;51401;48.882;12.598;2022-11-24T07:32:15;19.15;;;11.25;;
64903;SDS011;51401;48.882;12.598;2022-11-24T07:34:41;16.33;;;10.05;;
64903;SDS011;51401;48.882;12.598;2022-11-24T07:37:06;16.77;;;10.68;;
64903;SDS011;51401;48.882;12.598;2022-11-24T07:39:31;19.67;;;11.35;;
64903;SDS011;51401;48.882;12.598;2022-11-24T07:41:57;18.92;;;10.63;;
64903;SDS011;51401;48.882;12.598;2022-11-24T07:44:24;16.70;;;11.45;;
64903;SDS011;51401;48.882;12.598;2022-11-24T07:46:49;19.02;;;11.98;;
64903;SDS011;51401;48.882;12.598;2022-11-24T07:49:15;19.83;;;12.23;;
64903;SDS011;51401;48.882;12.598;2022-11-24T07:51:41;18.95;;;12.02;;
64903;SDS011;51401;48.882;12.598;2022-11-24T07:54:06;22.05;;;13.23;;
64903;SDS011;51401;48.882;12.598;2022-11-24T07:56:31;18.48;;;11.88;;
64903;SDS011;51401;48.882;12.598;2022-11-24T07:58:57;20.13;;;11.80;;
64903;SDS011;51401;48.882;12.598;2022-11-24T08:01:22;17.92;;;11.07;;
64903;SDS011;51401;48.882;12.598;2022-11-24T08:03:47;20.33;;;12.40;;
64903;SDS011;51401;48.882;12.598;2022-11-24T08:06:13;20.75;;;14.45;;
64903;SDS011;51401;48.882;12.598;2022-11-24T08:08:39;19.25;;;12.45;;
64903;SDS011;51401;48.882;12.598;2022-11-24T08:11:09;18.38;;;12.75;;
64903;SDS011;51401;48.882;12.598;2022-11-24T08:13:36;17.17;;;10.55;;
64903;SDS011;51401;48.882;12.598;2022-11-24T08:16:11;17.08;;;10.82;;
64903;SDS011;51401;48.882;12.598;2022-11-24T08:18:39;15.00;;;10.40;;
64903;SDS011;51401;48.882;12.598;2022-11-24T08:21:05;20.17;;;12.93;;
64903;SDS011;51401;48.882;12.598;2022-11-24T08:23:31;17.98;;;12.02;;
64903;SDS011;51401;48.882;12.598;2022-11-24T08:25:56;17.20;;;10.82;;
64903;SDS011;51401;48.882;12.598;2022-11-24T08:28:27;18.50;;;11.55;;
64903;SDS011;51401;48.882;12.598;2022-11-24T08:30:52;20.10;;;12.52;;
64903;SDS011;51401;48.882;12.598;2022-11-24T08:33:17;19.27;;;11.23;;
64903;SDS011;51401;48.882;12.598;2022-11-24T08:35:43;17.42;;;11.40;;
64903;SDS011;51401;48.882;12.598;2022-11-24T08:38:08;19.23;;;11.68;;
64903;SDS011;51401;48.882;12.598;2022-11-24T08:40:33;15.18;;;10.90;;
64903;SDS011;51401;48.882;12.598;2022-11-24T08:42:59;18.27;;;11.88;;
64903;SDS011;51401;48.882;12.598;2022-11-24T08:45:25;18.88;;;12.20;;
64903;SDS011;51401;48.882;12.598;2022-11-24T08:47:54;19.83;;;12.05;;
64903;SDS011;51401;48.882;12.598;2022-11-24T08:50:21;16.60;;;11.27;;
64903;SDS011;51401;48.882;12.598;2022-11-24T08:52:48;17.92;;;11.48;;
64903;SDS011;51401;48.882;12.598;2022-11-24T08:55:15;21.60;;;15.18;;
64903;SDS011;51401;48.882;12.598;2022-11-24T08:57:41;18.15;;;11.75;;
64903;SDS011;51401;48.882;12.598;2022-11-24T09:00:06;18.33;;;11.65;;
64903;SDS011;51401;48.882;12.598;2022-11-24T09:02:32;14.55;;;10.27;;
64903;SDS011;51401;48.882;12.598;2022-11-24T09:04:57;14.65;;;10.73;;
64903;SDS011;51401;48.882;12.598;2022-11-24T09:07:22;14.98;;;11.38;;
64903;SDS011;51401;48.882;12.598;2022-11-24T09:09:48;16.92;;;11.05;;
64903;SDS011;51401;48.882;12.598;2022-11-24T09:12:13;23.52;;;11.40;;
64903;SDS011;51401;48.882;12.598;2022-11-24T09:14:38;16.50;;;9.32;;
64903;SDS011;51401;48.882;12.598;2022-11-24T09:17:04;15.02;;;8.60;;
64903;SDS011;51401;48.882;12.598;2022-11-24T09:19:29;12.55;;;8.63;;
64903;SDS011;51401;48.882;12.598;2022-11-24T09:21:54;12.00;;;8.82;;
64903;SDS011;51401;48.882;12.598;2022-11-24T09:24:19;14.30;;;9.05;;
64903;SDS011;51401;48.882;12.598;2022-11-24T09:26:45;11.43;;;8.40;;
64903;SDS011;51401;48.882;12.598;2022-11-24T09:29:10;10.65;;;8.18;;
64903;SDS011;51401;48.882;12.598;2022-11-24T09:31:36;12.25;;;8.75;;
64903;SDS011;51401;48.882;12.598;2022-11-24T09:34:03;15.40;;;8.93;;
64903;SDS011;51401;48.882;12.598;2022-11-24T09:36:31;13.77;;;8.68;;
64903;SDS011;51401;48.882;12.598;2022-11-24T09:38:56;14.30;;;9.45;;
64903;SDS011;51401;48.882;12.598;2022-11-24T09:44:08;16.15;;;9.55;;
64903;SDS011;51401;48.882;12.598;2022-11-24T09:46:53;12.25;;;10.23;;
64903;SDS011;51401;48.882;12.598;2022-11-24T09:49:41;11.05;;;8.07;;
64903;SDS011;51401;48.882;12.598;2022-11-24T09:52:13;14.10;;;8.35;;
64903;SDS011;51401;48.882;12.598;2022-11-24T09:54:50;11.02;;;7.53;;
64903;SDS011;51401;48.882;12.598;2022-11-24T09:57:20;12.18;;;7.13;;
64903;SDS011;51401;48.882;12.598;2022-11-24T09:59:49;9.52;;;7.03;;
64903;SDS011;51401;48.882;12.598;2022-11-24T10:02:15;12.93;;;9.93;;
64903;SDS011;51401;48.882;12.598;2022-11-24T10:04:43;11.20;;;7.50;;
64903;SDS011;51401;48.882;12.598;2022-11-24T10:09:44;9.85;;;6.43;;
64903;SDS011;51401;48.882;12.598;2022-11-24T10:15:29;7.38;;;5.50;;
64903;SDS011;51401;48.882;12.598;2022-11-24T10:25:59;7.30;;;5.43;;
64903;SDS011;51401;48.882;12.598;2022-11-24T10:31:31;12.45;;;5.63;;
64903;SDS011;51401;48.882;12.598;2022-11-24T10:34:11;8.13;;;5.22;;
64903;SDS011;51401;48.882;12.598;2022-11-24T10:36:45;7.13;;;5.15;;
64903;SDS011;51401;48.882;12.598;2022-11-24T10:39:20;6.28;;;2.90;;
64903;SDS011;51401;48.882;12.598;2022-11-24T10:42:13;5.57;;;3.10;;
64903;SDS011;51401;48.882;12.598;2022-11-24T10:47:25;8.52;;;3.25;;
64903;SDS011;51401;48.882;12.598;2022-11-24T10:52:24;4.00;;;2.92;;
64903;SDS011;51401;48.882;12.598;2022-11-24T10:54:53;7.20;;;3.35;;
64903;SDS011;51401;48.882;12.598;2022-11-24T10:57:25;4.18;;;2.83;;
64903;SDS011;51401;48.882;12.598;2022-11-24T11:00:03;8.65;;;3.13;;
64903;SDS011;51401;48.882;12.598;2022-11-24T11:02:45;6.07;;;3.30;;
64903;SDS011;51401;48.882;12.598;2022-11-24T11:05:23;4.35;;;3.35;;
64903;SDS011;51401;48.882;12.598;2022-11-24T11:07:49;8.13;;;3.70;;
64903;SDS011;51401;48.882;12.598;2022-11-24T11:10:22;11.85;;;2.47;;
64903;SDS011;51401;48.882;12.598;2022-11-24T11:12:48;11.00;;;3.55;;
64903;SDS011;51401;48.882;12.598;2022-11-24T11:15:23;5.55;;;2.63;;
64903;SDS011;51401;48.882;12.598;2022-11-24T11:17:55;4.40;;;2.88;;
64903;SDS011;51401;48.882;12.598;2022-11-24T11:20:31;5.97;;;2.55;;
64903;SDS011;51401;48.882;12.598;2022-11-24T11:22:59;4.45;;;1.92;;
64903;SDS011;51401;48.882;12.598;2022-11-24T11:25:32;5.10;;;1.90;;
64903;SDS011;51401;48.882;12.598;2022-11-24T11:30:53;3.70;;;1.90;;
64903;SDS011;51401;48.882;12.598;2022-11-24T11:33:24;7.45;;;2.17;;
64903;SDS011;51401;48.882;12.598;2022-11-24T11:35:54;6.22;;;2.20;;
64903;SDS011;51401;48.882;12.598;2022-11-24T11:38:21;7.85;;;2.70;;
64903;SDS011;51401;48.882;12.598;2022-11-24T11:40:48;5.70;;;2.30;;
64903;SDS011;51401;48.882;12.598;2022-11-24T11:43:23;6.10;;;2.53;;
64903;SDS011;51401;48.882;12.598;2022-11-24T11:48:37;6.55;;;2.90;;
64903;SDS011;51401;48.882;12.598;2022-11-24T11:51:06;5.65;;;3.00;;
64903;SDS011;51401;48.882;12.598;2022-11-24T11:54:08;4.30;;;2.40;;
64903;SDS011;51401;48.882;12.598;2022-11-24T11:56:32;5.38;;;1.98;;
64903;SDS011;51401;48.882;12.598;2022-11-24T12:09:34;2.65;;;2.00;;
64903;SDS011;51401;48.882;12.598;2022-11-24T12:17:49;3.83;;;1.50;;
64903;SDS011;51401;48.882;12.598;2022-11-24T12:25:56;3.00;;;1.65;;
64903;SDS011;51401;48.882;12.598;2022-11-24T12:34:03;3.90;;;2.22;;
64903;SDS011;51401;48.882;12.598;2022-11-24T12:42:00;3.13;;;1.17;;
64903;SDS011;51401;48.882;12.598;2022-11-24T12:55:18;4.55;;;1.40;;
64903;SDS011;51401;48.882;12.598;2022-11-24T12:57:58;3.80;;;1.10;;
64903;SDS011;51401;48.882;12.598;2022-11-24T13:09:16;1.42;;;0.98;;
64903;SDS011;51401;48.882;12.598;2022-11-24T13:16:53;2.03;;;1.10;;
64903;SDS011;51401;48.882;12.598;2022-11-24T13:19:22;1.65;;;1.10;;
64903;SDS011;51401;48.882;12.598;2022-11-24T13:22:08;3.75;;;1.60;;
64903;SDS011;51401;48.882;12.598;2022-11-24T13:24:39;4.68;;;1.60;;
64903;SDS011;51401;48.882;12.598;2022-11-24T13:29:43;3.17;;;1.70;;
64903;SDS011;51401;48.882;12.598;2022-11-24T13:39:47;3.75;;;2.20;;
64903;SDS011;51401;48.882;12.598;2022-11-24T13:42:15;4.70;;;2.08;;
64903;SDS011;51401;48.882;12.598;2022-11-24T13:44:48;4.43;;;1.80;;
64903;SDS011;51401;48.882;12.598;2022-11-24T13:47:37;5.32;;;2.13;;
64903;SDS011;51401;48.882;12.598;2022-11-24T13:50:11;3.08;;;2.10;;
64903;SDS011;51401;48.882;12.598;2022-11-24T13:55:03;4.85;;;2.70;;
64903;SDS011;51401;48.882;12.598;2022-11-24T13:57:44;4.53;;;2.47;;
64903;SDS011;51401;48.882;12.598;2022-11-24T14:00:27;4.22;;;2.85;;
64903;SDS011;51401;48.882;12.598;2022-11-24T14:03:15;5.72;;;3.25;;
64903;SDS011;51401;48.882;12.598;2022-11-24T14:05:45;7.25;;;3.28;;
64903;SDS011;51401;48.882;12.598;2022-11-24T14:08:17;4.88;;;3.00;;
64903;SDS011;51401;48.882;12.598;2022-11-24T14:10:45;9.52;;;3.42;;
64903;SDS011;51401;48.882;12.598;2022-11-24T14:18:28;5.60;;;3.00;;
64903;SDS011;51401;48.882;12.598;2022-11-24T14:20:55;5.07;;;3.15;;
64903;SDS011;51401;48.882;12.598;2022-11-24T14:23:22;4.80;;;2.35;;
64903;SDS011;51401;48.882;12.598;2022-11-24T14:25:48;4.63;;;2.63;;
64903;SDS011;51401;48.882;12.598;2022-11-24T14:28:18;3.15;;;2.40;;
64903;SDS011;51401;48.882;12.598;2022-11-24T14:30:46;4.88;;;2.72;;
64903;SDS011;51401;48.882;12.598;2022-11-24T14:33:12;6.50;;;3.58;;
64903;SDS011;51401;48.882;12.598;2022-11-24T14:35:43;6.20;;;2.50;;
64903;SDS011;51401;48.882;12.598;2022-11-24T14:38:11;4.68;;;2.70;;
64903;SDS011;51401;48.882;12.598;2022-11-24T14:46:02;4.57;;;1.98;;
64903;SDS011;51401;48.882;12.598;2022-11-24T14:48:36;5.75;;;1.90;;
64903;SDS011;51401;48.882;12.598;2022-11-24T14:53:35;3.92;;;1.40;;
64903;SDS011;51401;48.882;12.598;2022-11-24T14:58:49;3.30;;;1.70;;
64903;SDS011;51401;48.882;12.598;2022-11-24T15:04:34;3.05;;;1.20;;
64903;SDS011;51401;48.882;12.598;2022-11-24T15:06:59;2.20;;;1.20;;
64903;SDS011;51401;48.882;12.598;2022-11-24T15:12:02;3.08;;;1.80;;
64903;SDS011;51401;48.882;12.598;2022-11-24T15:17:02;2.15;;;1.38;;
64903;SDS011;51401;48.882;12.598;2022-11-24T15:19:31;3.55;;;1.83;;
64903;SDS011;51401;48.882;12.598;2022-11-24T15:21:59;3.00;;;1.58;;
64903;SDS011;51401;48.882;12.598;2022-11-24T15:24:25;4.75;;;2.08;;
64903;SDS011;51401;48.882;12.598;2022-11-24T15:26:57;5.20;;;1.75;;
64903;SDS011;51401;48.882;12.598;2022-11-24T15:29:23;3.88;;;1.85;;
64903;SDS011;51401;48.882;12.598;2022-11-24T15:31:48;4.05;;;1.73;;
64903;SDS011;51401;48.882;12.598;2022-11-24T15:34:13;2.38;;;1.80;;
64903;SDS011;51401;48.882;12.598;2022-11-24T15:36:39;3.72;;;1.90;;
64903;SDS011;51401;48.882;12.598;2022-11-24T15:39:04;3.55;;;1.98;;
64903;SDS011;51401;48.882;12.598;2022-11-24T15:41:30;3.05;;;1.65;;
64903;SDS011;51401;48.882;12.598;2022-11-24T15:43:57;3.42;;;1.75;;
64903;SDS011;51401;48.882;12.598;2022-11-24T15:46:26;3.70;;;1.50;;
64903;SDS011;51401;48.882;12.598;2022-11-24T15:48:52;1.95;;;1.50;;
64903;SDS011;51401;48.882;12.598;2022-11-24T15:51:18;4.47;;;1.70;;
64903;SDS011;51401;48.882;12.598;2022-11-24T15:53:44;3.75;;;1.88;;
64903;SDS011;51401;48.882;12.598;2022-11-24T15:56:14;3.40;;;1.95;;
64903;SDS011;51401;48.882;12.598;2022-11-24T15:59:00;4.53;;;2.30;;
64903;SDS011;51401;48.882;12.598;2022-11-24T16:01:27;2.40;;;1.70;;
64903;SDS011;51401;48.882;12.598;2022-11-24T16:03:55;3.42;;;2.10;;
64903;SDS011;51401;48.882;12.598;2022-11-24T16:06:20;5.18;;;2.33;;
64903;SDS011;51401;48.882;12.598;2022-11-24T16:08:45;3.88;;;2.83;;
64903;SDS011;51401;48.882;12.598;2022-11-24T16:11:11;4.05;;;2.47;;
64903;SDS011;51401;48.882;12.598;2022-11-24T16:13:36;3.42;;;2.17;;
64903;SDS011;51401;48.882;12.598;2022-11-24T16:16:02;4.68;;;2.20;;
64903;SDS011;51401;48.882;12.598;2022-11-24T16:18:27;3.55;;;2.03;;
64903;SDS011;51401;48.882;12.598;2022-11-24T16:20:54;3.33;;;2.40;;
64903;SDS011;51401;48.882;12.598;2022-11-24T16:23:19;3.67;;;2.72;;
64903;SDS011;51401;48.882;12.598;2022-11-24T16:25:45;3.45;;;2.58;;
64903;SDS011;51401;48.882;12.598;2022-11-24T16:28:10;3.10;;;2.05;;
64903;SDS011;51401;48.882;12.598;2022-11-24T16:30:36;3.35;;;2.28;;
64903;SDS011;51401;48.882;12.598;2022-11-24T16:33:02;3.55;;;1.98;;
64903;SDS011;51401;48.882;12.598;2022-11-24T16:35:29;3.53;;;1.67;;
64903;SDS011;51401;48.882;12.598;2022-11-24T16:37:55;5.07;;;2.85;;